createdAt,value
2018-12-05T00:00:33.428Z,53.81
2018-12-05T00:01:33.412Z,53.06
2018-12-05T00:02:33.396Z,53.53
2018-12-05T00:03:33.367Z,52.87
2018-12-05T00:04:33.355Z,52.96
2018-12-05T00:05:33.327Z,52.59
2018-12-05T00:06:33.393Z,52.3
2018-12-05T00:07:33.288Z,50.32
2018-12-05T00:08:33.026Z,48.52
2018-12-05T00:09:33.248Z,46.64
2018-12-05T00:10:33.279Z,44.18
2018-12-05T00:11:33.219Z,43.05
2018-12-05T00:12:33.188Z,42.86
2018-12-05T00:13:33.169Z,42.48
2018-12-05T00:14:33.150Z,42.2
2018-12-05T00:15:33.131Z,42.3
2018-12-05T00:16:33.109Z,42.2
2018-12-05T00:17:33.634Z,41.73
2018-12-05T00:18:33.068Z,41.16
2018-12-05T00:20:33.028Z,39.94
2018-12-05T00:21:33.008Z,39.75
2018-12-05T00:22:32.986Z,39.65
2018-12-05T00:23:32.962Z,39.46
2018-12-05T00:24:32.952Z,39.37
2018-12-05T00:25:32.927Z,39.46
2018-12-05T00:26:32.908Z,39.37
2018-12-05T00:27:32.642Z,38.99
2018-12-05T00:28:32.626Z,38.9
2018-12-05T00:29:32.847Z,38.99
2018-12-05T00:30:32.823Z,38.9
2018-12-05T00:31:32.806Z,38.9
2018-12-05T00:32:32.790Z,38.71
2018-12-05T00:33:32.770Z,38.71
2018-12-05T00:34:32.743Z,38.9
2018-12-05T00:35:32.727Z,38.8
2018-12-05T00:36:32.706Z,38.99
2018-12-05T00:37:32.691Z,38.99
2018-12-05T00:38:32.667Z,39.18
2018-12-05T00:39:32.402Z,39.37
2018-12-05T00:40:32.627Z,40.12
2018-12-05T00:41:32.690Z,40.97
2018-12-05T00:42:32.594Z,41.63
2018-12-05T00:43:32.566Z,42.2
2018-12-05T00:44:32.549Z,42.77
2018-12-05T00:45:32.525Z,42.86
2018-12-05T00:46:32.508Z,43.05
2018-12-05T00:47:32.485Z,42.96
2018-12-05T00:48:32.469Z,43.62
2018-12-05T00:49:32.199Z,44.18
2018-12-05T00:50:32.428Z,44.37
2018-12-05T00:51:32.410Z,44.56
2018-12-05T00:52:32.385Z,44.75
2018-12-05T00:53:32.369Z,44.65
2018-12-05T00:54:32.349Z,44.09
2018-12-05T00:55:32.329Z,44.09
2018-12-05T00:56:32.307Z,43.99
2018-12-05T00:57:32.290Z,43.52
2018-12-05T00:58:32.269Z,42.48
2018-12-05T00:59:32.248Z,42.01
2018-12-05T01:00:32.229Z,41.73
2018-12-05T01:01:32.208Z,41.25
2018-12-05T01:02:32.191Z,40.97
2018-12-05T01:03:32.170Z,40.41
2018-12-05T01:04:32.151Z,39.94
2018-12-05T01:05:32.129Z,39.46
2018-12-05T01:06:32.110Z,38.99
2018-12-05T01:07:32.099Z,38.42
2018-12-05T01:08:32.069Z,37.85
2018-12-05T01:09:32.048Z,37.38
2018-12-05T01:10:32.031Z,37.48
2018-12-05T01:11:32.020Z,37.19
2018-12-05T01:12:31.750Z,37.19
2018-12-05T01:13:31.972Z,36.63
2018-12-05T01:14:31.951Z,36.44
2018-12-05T01:15:31.932Z,35.97
2018-12-05T01:16:31.916Z,35.31
2018-12-05T01:17:31.893Z,35.04
2018-12-05T01:18:31.874Z,34.93
2018-12-05T01:19:31.855Z,34.47
2018-12-05T01:20:31.850Z,34.1
2018-12-05T01:21:31.817Z,34.47
2018-12-05T01:22:31.794Z,34.19
2018-12-05T01:23:31.773Z,34.38
2018-12-05T01:24:31.756Z,34.1
2018-12-05T01:25:31.739Z,34.1
2018-12-05T01:26:31.715Z,34
2018-12-05T01:27:31.699Z,34
2018-12-05T01:28:31.434Z,34.57
2018-12-05T01:29:31.657Z,34.95
2018-12-05T01:30:31.641Z,35.33
2018-12-05T01:31:31.621Z,35.33
2018-12-05T01:32:31.595Z,35.61
2018-12-05T01:33:31.581Z,35.52
2018-12-05T01:34:31.560Z,35.52
2018-12-05T01:35:31.539Z,35.23
2018-12-05T01:36:31.523Z,35.04
2018-12-05T01:37:31.502Z,35.23
2018-12-05T01:38:31.481Z,34.38
2018-12-05T01:39:31.459Z,34.85
2018-12-05T01:40:31.446Z,34.76
2018-12-05T01:41:31.424Z,34.57
2018-12-05T01:42:31.404Z,34.85
2018-12-05T01:43:31.379Z,34.85
2018-12-05T01:44:31.117Z,34.95
2018-12-05T01:45:31.347Z,34.66
2018-12-05T01:46:31.325Z,34.95
2018-12-05T01:47:31.303Z,35.14
2018-12-05T01:48:31.287Z,35.42
2018-12-05T01:49:31.270Z,35.8
2018-12-05T01:50:31.247Z,36.65
2018-12-05T01:51:31.233Z,36.65
2018-12-05T01:52:30.959Z,37.12
2018-12-05T01:53:31.190Z,36.74
2018-12-05T01:54:31.170Z,36.46
2018-12-05T01:55:31.152Z,36.55
2018-12-05T01:56:30.886Z,36.83
2018-12-05T01:57:31.111Z,36.27
2018-12-05T01:58:31.092Z,36.27
2018-12-05T01:59:31.075Z,36.27
2018-12-05T02:00:31.054Z,36.18
2018-12-05T02:01:31.038Z,35.89
2018-12-05T02:02:31.018Z,35.71
2018-12-05T02:03:30.997Z,35.71
2018-12-05T02:04:30.976Z,36.08
2018-12-05T02:05:30.959Z,36.18
2018-12-05T02:06:31.009Z,36.65
2018-12-05T02:07:30.922Z,36.46
2018-12-05T02:08:30.897Z,37.02
2018-12-05T02:09:30.890Z,37.97
2018-12-05T02:10:30.614Z,38.35
2018-12-05T02:11:30.839Z,38.82
2018-12-05T02:12:30.822Z,39.11
2018-12-05T02:13:30.803Z,39.39
2018-12-05T02:14:30.786Z,39.39
2018-12-05T02:15:30.766Z,39.58
2018-12-05T02:16:30.747Z,39.48
2018-12-05T02:17:30.725Z,39.76
2018-12-05T02:18:30.471Z,39.76
2018-12-05T02:19:30.689Z,40.05
2018-12-05T02:20:30.668Z,40.33
2018-12-05T02:21:30.651Z,40.52
2018-12-05T02:22:30.630Z,40.71
2018-12-05T02:23:30.610Z,41.18
2018-12-05T02:24:30.593Z,41.75
2018-12-05T02:25:30.573Z,42.13
2018-12-05T02:26:30.555Z,42.32
2018-12-05T02:27:30.284Z,42.5
2018-12-05T02:28:30.519Z,42.79
2018-12-05T02:29:30.496Z,43.45
2018-12-05T02:30:30.478Z,43.83
2018-12-05T02:31:30.454Z,44.11
2018-12-05T02:32:30.440Z,45.06
2018-12-05T02:33:30.419Z,45.34
2018-12-05T02:34:30.405Z,45.62
2018-12-05T02:35:30.133Z,45.81
2018-12-05T02:36:30.365Z,46.75
2018-12-05T02:37:30.341Z,47.51
2018-12-05T02:38:30.321Z,47.8
2018-12-05T02:39:30.309Z,48.36
2018-12-05T02:40:30.284Z,48.55
2018-12-05T02:41:30.265Z,48.65
2018-12-05T02:42:30.073Z,48.93
2018-12-05T02:43:30.227Z,49.3
2018-12-05T02:44:30.285Z,49.49
2018-12-05T02:45:29.942Z,50.25
2018-12-05T02:46:30.173Z,50.35
2018-12-05T02:47:30.166Z,51.67
2018-12-05T02:48:30.138Z,51.86
2018-12-05T02:49:30.111Z,52.8
2018-12-05T02:50:29.843Z,53.56
2018-12-05T02:51:30.079Z,53.75
2018-12-05T02:52:30.052Z,54.41
2018-12-05T02:53:30.033Z,55.44
2018-12-05T02:54:30.016Z,56.48
2018-12-05T02:55:29.992Z,56.67
2018-12-05T02:56:29.974Z,57.05
2018-12-05T02:57:29.968Z,57.71
2018-12-05T02:58:29.938Z,58.18
2018-12-05T02:59:29.915Z,59.38
2018-12-05T03:00:29.899Z,60.52
2018-12-05T03:01:29.878Z,61.08
2018-12-05T03:02:29.872Z,61.93
2018-12-05T03:03:29.844Z,62.02
2018-12-05T03:04:29.822Z,62.21
2018-12-05T03:05:29.822Z,62.69
2018-12-05T03:06:29.785Z,63.07
2018-12-05T03:07:29.884Z,63.16
2018-12-05T03:08:29.494Z,62.69
2018-12-05T03:09:29.728Z,62.02
2018-12-05T03:10:29.707Z,62.02
2018-12-05T03:11:29.681Z,61.36
2018-12-05T03:12:29.414Z,61.18
2018-12-05T03:13:29.646Z,60.33
2018-12-05T03:14:29.629Z,59.95
2018-12-05T03:15:29.609Z,59.67
2018-12-05T03:16:29.588Z,58.44
2018-12-05T03:17:29.316Z,57.68
2018-12-05T03:18:29.299Z,57.12
2018-12-05T03:19:29.533Z,56.93
2018-12-05T03:20:29.511Z,56.36
2018-12-05T03:21:29.487Z,55.04
2018-12-05T03:22:29.470Z,54.75
2018-12-05T03:23:29.446Z,54.28
2018-12-05T03:24:29.428Z,54.28
2018-12-05T03:25:29.418Z,53.53
2018-12-05T03:26:29.393Z,52.87
2018-12-05T03:27:29.380Z,52.49
2018-12-05T03:28:29.347Z,51.83
2018-12-05T03:29:29.331Z,52.02
2018-12-05T03:30:29.313Z,52.11
2018-12-05T03:31:29.298Z,51.73
2018-12-05T03:32:29.277Z,51.64
2018-12-05T03:33:29.267Z,51.92
2018-12-05T03:34:29.230Z,51.17
2018-12-05T03:35:28.966Z,50.98
2018-12-05T03:36:29.193Z,50.89
2018-12-05T03:37:29.176Z,50.23
2018-12-05T03:38:29.155Z,50.13
2018-12-05T03:39:29.141Z,50.04
2018-12-05T03:40:29.116Z,50.13
2018-12-05T03:41:29.102Z,49.94
2018-12-05T03:42:29.075Z,50.13
2018-12-05T03:43:29.054Z,49.94
2018-12-05T03:44:28.785Z,50.13
2018-12-05T03:45:29.016Z,50.13
2018-12-05T03:46:29.007Z,50.63
2018-12-05T03:47:28.978Z,50.98
2018-12-05T03:48:28.960Z,51.76
2018-12-05T03:49:28.938Z,51.92
2018-12-05T03:50:28.915Z,52.11
2018-12-05T03:51:28.897Z,51.54
2018-12-05T03:52:28.880Z,51.54
2018-12-05T03:53:28.859Z,52.11
2018-12-05T03:54:28.842Z,51.92
2018-12-05T03:55:28.825Z,52.51
2018-12-05T03:56:28.801Z,52.87
2018-12-05T03:57:28.781Z,52.78
2018-12-05T03:58:28.760Z,52.49
2018-12-05T03:59:28.770Z,52.68
2018-12-05T04:00:28.723Z,53.06
2018-12-05T04:01:28.701Z,52.96
2018-12-05T04:02:28.687Z,52.87
2018-12-05T04:03:28.676Z,52.78
2018-12-05T04:04:28.647Z,52.3
2018-12-05T04:05:28.621Z,52.02
2018-12-05T04:06:28.359Z,52.02
2018-12-05T04:07:28.587Z,51.83
2018-12-05T04:08:28.570Z,51.45
2018-12-05T04:09:28.545Z,51.26
2018-12-05T04:10:28.529Z,50.6
2018-12-05T04:11:28.257Z,50.51
2018-12-05T04:12:28.238Z,50.23
2018-12-05T04:13:28.469Z,49.76
2018-12-05T04:14:28.449Z,49.85
2018-12-05T04:15:28.429Z,49.66
2018-12-05T04:16:28.418Z,49.85
2018-12-05T04:17:28.390Z,49.47
2018-12-05T04:18:28.377Z,49.28
2018-12-05T04:19:28.353Z,49.66
2018-12-05T04:20:28.327Z,49.94
2018-12-05T04:21:28.311Z,50.13
2018-12-05T04:22:28.289Z,50.04
2018-12-05T04:23:28.274Z,50.23
2018-12-05T04:24:28.251Z,50.89
2018-12-05T04:25:28.232Z,50.51
2018-12-05T04:26:28.215Z,50.7
2018-12-05T04:27:28.191Z,50.89
2018-12-05T04:28:28.172Z,49.85
2018-12-05T04:29:28.154Z,49.66
2018-12-05T04:30:28.208Z,49.19
2018-12-05T04:31:28.113Z,49.09
2018-12-05T04:32:28.098Z,49
2018-12-05T04:33:28.071Z,48.71
2018-12-05T04:34:28.056Z,48.52
2018-12-05T04:35:27.791Z,48.05
2018-12-05T04:36:28.015Z,47.11
2018-12-05T04:37:27.999Z,46.17
2018-12-05T04:38:27.978Z,45.5
2018-12-05T04:39:27.954Z,45.03
2018-12-05T04:40:27.935Z,44.46
2018-12-05T04:41:27.923Z,44.56
2018-12-05T04:42:27.912Z,44.39
2018-12-05T04:43:27.879Z,44.75
2018-12-05T04:44:27.883Z,45.06
2018-12-05T04:45:27.836Z,45.79
2018-12-05T04:46:27.819Z,46.17
2018-12-05T04:47:27.551Z,46.36
2018-12-05T04:48:27.777Z,47.2
2018-12-05T04:49:27.763Z,47.58
2018-12-05T04:50:27.749Z,48.15
2018-12-05T04:51:27.720Z,48.71
2018-12-05T04:52:27.696Z,49.57
2018-12-05T04:53:27.688Z,50.04
2018-12-05T04:54:27.661Z,50.23
2018-12-05T04:55:27.641Z,50.7
2018-12-05T04:56:27.625Z,50.6
2018-12-05T04:57:27.603Z,51.45
2018-12-05T04:58:27.580Z,51.45
2018-12-05T04:59:27.563Z,51.07
2018-12-05T05:00:27.542Z,50.98
2018-12-05T05:01:27.520Z,50.51
2018-12-05T05:02:27.505Z,50.7
2018-12-05T05:03:27.488Z,49.94
2018-12-05T05:04:27.463Z,50.04
2018-12-05T05:05:27.444Z,49.76
2018-12-05T05:06:27.429Z,49.85
2018-12-05T05:07:27.401Z,49.57
2018-12-05T05:08:27.391Z,49.57
2018-12-05T05:09:27.364Z,49.09
2018-12-05T05:10:27.439Z,49.47
2018-12-05T05:11:27.328Z,49.85
2018-12-05T05:12:27.310Z,50.13
2018-12-05T05:13:27.286Z,50.51
2018-12-05T05:14:27.266Z,51.36
2018-12-05T05:15:27.245Z,51.83
2018-12-05T05:16:27.223Z,52.11
2018-12-05T05:17:27.205Z,52.21
2018-12-05T05:18:27.187Z,52.87
2018-12-05T05:19:27.166Z,52.78
2018-12-05T05:20:27.149Z,53.72
2018-12-05T05:21:27.141Z,53.44
2018-12-05T05:22:27.113Z,53.63
2018-12-05T05:23:27.088Z,53.81
2018-12-05T05:24:27.066Z,53.91
2018-12-05T05:25:27.050Z,54.1
2018-12-05T05:26:27.032Z,54.28
2018-12-05T05:27:27.010Z,53.72
2018-12-05T05:28:26.987Z,53.53
2018-12-05T05:29:26.970Z,53.91
2018-12-05T05:30:26.951Z,53.34
2018-12-05T05:31:26.928Z,52.96
2018-12-05T05:32:26.910Z,52.87
2018-12-05T05:33:26.893Z,53.34
2018-12-05T05:34:26.866Z,53.72
2018-12-05T05:35:26.852Z,53.63
2018-12-05T05:36:26.831Z,54.38
2018-12-05T05:37:26.815Z,54.28
2018-12-05T05:38:26.788Z,54.66
2018-12-05T05:39:26.524Z,54.47
2018-12-05T05:40:26.750Z,54.28
2018-12-05T05:41:26.734Z,54.38
2018-12-05T05:42:26.708Z,54.47
2018-12-05T05:43:26.686Z,54.47
2018-12-05T05:44:26.426Z,54.75
2018-12-05T05:45:26.653Z,55.23
2018-12-05T05:46:26.637Z,55.42
2018-12-05T05:47:26.615Z,55.98
2018-12-05T05:48:26.592Z,55.98
2018-12-05T05:49:26.570Z,55.51
2018-12-05T05:50:26.554Z,55.23
2018-12-05T05:51:26.532Z,54.1
2018-12-05T05:52:26.511Z,53.53
2018-12-05T05:53:26.498Z,52.4
2018-12-05T05:54:26.470Z,52.02
2018-12-05T05:55:26.459Z,51.73
2018-12-05T05:56:26.432Z,51.36
2018-12-05T05:57:26.411Z,51.83
2018-12-05T05:58:26.389Z,51.83
2018-12-05T05:59:26.373Z,52.68
2018-12-05T06:00:26.353Z,52.78
2018-12-05T06:01:26.337Z,52.78
2018-12-05T06:02:26.309Z,53.44
2018-12-05T06:03:26.291Z,53.34
2018-12-05T06:04:26.274Z,52.78
2018-12-05T06:05:26.252Z,52.78
2018-12-05T06:06:26.234Z,52.87
2018-12-05T06:07:26.211Z,53.63
2018-12-05T06:08:26.194Z,53.53
2018-12-05T06:09:26.171Z,53.81
2018-12-05T06:10:26.152Z,53.44
2018-12-05T06:11:26.138Z,53.72
2018-12-05T06:12:26.116Z,53.81
2018-12-05T06:13:26.095Z,53.81
2018-12-05T06:14:26.075Z,53.81
2018-12-05T06:15:26.056Z,53.91
2018-12-05T06:16:26.036Z,54.38
2018-12-05T06:17:26.013Z,54.38
2018-12-05T06:18:26.000Z,54.47
2018-12-05T06:19:25.729Z,54.47
2018-12-05T06:20:25.952Z,54.38
2018-12-05T06:21:25.937Z,54.57
2018-12-05T06:22:25.912Z,54.75
2018-12-05T06:23:25.892Z,55.42
2018-12-05T06:24:25.625Z,55.98
2018-12-05T06:25:25.851Z,56.55
2018-12-05T06:26:25.833Z,56.84
2018-12-05T06:27:25.564Z,56.93
2018-12-05T06:28:25.792Z,57.59
2018-12-05T06:29:25.771Z,57.68
2018-12-05T06:30:25.753Z,58.15
2018-12-05T06:31:25.730Z,58.22
2018-12-05T06:32:25.710Z,58.15
2018-12-05T06:33:25.691Z,58.6
2018-12-05T06:34:25.673Z,58.44
2018-12-05T06:35:25.653Z,58.12
2018-12-05T06:36:25.630Z,58.22
2018-12-05T06:37:25.611Z,58.03
2018-12-05T06:38:25.591Z,57.94
2018-12-05T06:39:25.572Z,57.94
2018-12-05T06:40:25.551Z,58.31
2018-12-05T06:41:25.533Z,57.94
2018-12-05T06:42:25.510Z,57.75
2018-12-05T06:43:25.495Z,57.75
2018-12-05T06:44:25.228Z,57.65
2018-12-05T06:45:25.447Z,56.43
2018-12-05T06:46:25.430Z,55.2
2018-12-05T06:47:25.417Z,53.78
2018-12-05T06:48:25.388Z,53.41
2018-12-05T06:49:25.377Z,52.75
2018-12-05T06:50:25.351Z,52.56
2018-12-05T06:51:25.332Z,51.99
2018-12-05T06:52:25.310Z,52.09
2018-12-05T06:53:25.289Z,51.62
2018-12-05T06:54:25.271Z,51.99
2018-12-05T06:55:25.249Z,51.71
2018-12-05T06:56:25.226Z,51.14
2018-12-05T06:57:25.206Z,51.52
2018-12-05T06:58:25.193Z,50.58
2018-12-05T06:59:25.171Z,49.54
2018-12-05T07:00:25.155Z,48.43
2018-12-05T07:01:25.134Z,47.2
2018-12-05T07:02:25.108Z,46.07
2018-12-05T07:03:25.087Z,44.84
2018-12-05T07:04:25.076Z,43.99
2018-12-05T07:05:25.048Z,44.37
2018-12-05T07:06:25.025Z,44.37
2018-12-05T07:07:25.003Z,43.24
2018-12-05T07:08:24.984Z,42.3
2018-12-05T07:09:24.965Z,41.73
2018-12-05T07:10:24.942Z,41.54
2018-12-05T07:11:24.928Z,40.88
2018-12-05T07:12:24.904Z,40.69
2018-12-05T07:13:24.636Z,40.5
2018-12-05T07:14:24.864Z,40.22
2018-12-05T07:15:24.844Z,39.46
2018-12-05T07:16:24.823Z,38.71
2018-12-05T07:17:24.805Z,37.85
2018-12-05T07:18:24.785Z,37.38
2018-12-05T07:19:24.770Z,37.48
2018-12-05T07:20:24.742Z,36.44
2018-12-05T07:21:24.730Z,36.25
2018-12-05T07:22:24.705Z,36.25
2018-12-05T07:23:24.683Z,35.88
2018-12-05T07:24:24.663Z,35.31
2018-12-05T07:25:24.644Z,35.59
2018-12-05T07:26:24.625Z,35.69
2018-12-05T07:27:24.602Z,35.4
2018-12-05T07:28:24.583Z,35.97
2018-12-05T07:29:24.563Z,36.44
2018-12-05T07:30:31.807Z,36.25
2018-12-05T07:31:24.519Z,36.44
2018-12-05T07:32:24.498Z,36.44
2018-12-05T07:33:24.485Z,36.16
2018-12-05T07:34:24.461Z,36.16
2018-12-05T07:35:24.192Z,36.35
2018-12-05T07:36:24.422Z,35.97
2018-12-05T07:37:24.400Z,35.4
2018-12-05T07:38:24.386Z,34.83
2018-12-05T07:39:24.361Z,34.74
2018-12-05T07:40:24.341Z,34.55
2018-12-05T07:41:24.325Z,35.02
2018-12-05T07:42:24.302Z,35.4
2018-12-05T07:43:24.284Z,35.4
2018-12-05T07:44:24.261Z,35.4
2018-12-05T07:45:24.240Z,35.88
2018-12-05T07:46:24.219Z,36.54
2018-12-05T07:47:24.206Z,37.1
2018-12-05T07:48:24.181Z,37.85
2018-12-05T07:49:24.161Z,38.26
2018-12-05T07:50:24.145Z,38.54
2018-12-05T07:51:24.122Z,38.9
2018-12-05T07:52:24.102Z,39.18
2018-12-05T07:53:24.095Z,39.09
2018-12-05T07:54:24.062Z,39.29
2018-12-05T07:55:23.795Z,39.84
2018-12-05T07:56:24.021Z,40.14
2018-12-05T07:57:24.004Z,40.03
2018-12-05T07:58:23.745Z,40.59
2018-12-05T07:59:23.968Z,40.8
2018-12-05T08:00:23.946Z,40.97
2018-12-05T08:01:23.927Z,40.78
2018-12-05T08:02:23.910Z,40.78
2018-12-05T08:03:23.889Z,41.63
2018-12-05T08:04:23.878Z,42.41
2018-12-05T08:05:23.852Z,42.67
2018-12-05T08:06:23.822Z,43.07
2018-12-05T08:07:23.809Z,43.16
2018-12-05T08:08:23.795Z,43.35
2018-12-05T08:09:23.768Z,43.54
2018-12-05T08:10:23.747Z,43.35
2018-12-05T08:11:23.480Z,43.54
2018-12-05T08:12:23.709Z,43.92
2018-12-05T08:13:23.686Z,45.34
2018-12-05T08:14:23.672Z,45.62
2018-12-05T08:15:23.654Z,45.9
2018-12-05T08:16:23.634Z,46.28
2018-12-05T08:17:23.609Z,46.56
2018-12-05T08:18:23.589Z,46.56
2018-12-05T08:19:23.569Z,46.85
2018-12-05T08:20:23.304Z,46.19
2018-12-05T08:21:23.533Z,45.81
2018-12-05T08:22:23.264Z,45.15
2018-12-05T08:23:23.492Z,44.49
2018-12-05T08:24:23.476Z,43.83
2018-12-05T08:25:23.457Z,43.45
2018-12-05T08:26:23.433Z,43.07
2018-12-05T08:27:23.173Z,42.79
2018-12-05T08:28:23.394Z,42.69
2018-12-05T08:29:23.383Z,42.79
2018-12-05T08:30:23.353Z,42.6
2018-12-05T08:31:23.336Z,42.32
2018-12-05T08:32:23.314Z,42.13
2018-12-05T08:33:23.300Z,42.6
2018-12-05T08:34:23.275Z,42.79
2018-12-05T08:35:23.258Z,41.94
2018-12-05T08:36:22.989Z,41.75
2018-12-05T08:37:23.217Z,42.22
2018-12-05T08:38:23.199Z,42.22
2018-12-05T08:39:23.176Z,43.35
2018-12-05T08:40:23.159Z,44.49
2018-12-05T08:41:22.888Z,45.06
2018-12-05T08:42:23.121Z,45.34
2018-12-05T08:43:23.100Z,44.21
2018-12-05T08:44:23.088Z,44.3
2018-12-05T08:45:23.065Z,44.49
2018-12-05T08:46:23.044Z,44.68
2018-12-05T08:47:23.026Z,45.06
2018-12-05T08:48:23.002Z,45.06
2018-12-05T08:49:22.988Z,45.15
2018-12-05T08:50:22.968Z,45.25
2018-12-05T08:51:22.945Z,45.72
2018-12-05T08:52:22.933Z,45.9
2018-12-05T08:53:22.908Z,46.37
2018-12-05T08:54:23.446Z,46.66
2018-12-05T08:55:22.870Z,46.66
2018-12-05T08:56:22.852Z,46.85
2018-12-05T08:57:22.828Z,47.32
2018-12-05T08:58:22.816Z,47.23
2018-12-05T08:59:22.790Z,47.13
2018-12-05T09:00:22.774Z,47.13
2018-12-05T09:01:22.755Z,47.13
2018-12-05T09:02:23.098Z,47.89
2018-12-05T09:03:22.721Z,47.51
2018-12-05T09:04:22.700Z,47.7
2018-12-05T09:05:22.681Z,47.7
2018-12-05T09:06:22.662Z,47.51
2018-12-05T09:07:22.636Z,46.56
2018-12-05T09:08:22.624Z,47.25
2018-12-05T09:09:22.602Z,47.53
2018-12-05T09:10:22.584Z,48.01
2018-12-05T09:11:22.572Z,48.86
2018-12-05T09:12:22.541Z,49.62
2018-12-05T09:13:22.523Z,49.71
2018-12-05T09:14:28.556Z,49.8
2018-12-05T09:15:22.487Z,50.18
2018-12-05T09:16:22.470Z,50.75
2018-12-05T09:17:22.449Z,51.6
2018-12-05T09:18:22.432Z,51.6
2018-12-05T09:19:22.418Z,52.64
2018-12-05T09:20:22.402Z,52.83
2018-12-05T09:21:22.379Z,53.58
2018-12-05T09:22:22.357Z,54.15
2018-12-05T09:23:22.333Z,54.15
2018-12-05T09:24:22.319Z,55.1
2018-12-05T09:25:22.051Z,55.47
2018-12-05T09:26:22.278Z,56.42
2018-12-05T09:27:22.258Z,56.99
2018-12-05T09:28:22.239Z,58.4
2018-12-05T09:29:22.222Z,59.35
2018-12-05T09:30:22.205Z,61.9
2018-12-05T09:31:22.180Z,63.51
2018-12-05T09:32:22.166Z,64.54
2018-12-05T09:33:22.152Z,65.11
2018-12-05T09:34:22.129Z,66.16
2018-12-05T09:35:22.107Z,67.1
2018-12-05T09:36:22.092Z,67.29
2018-12-05T09:37:22.070Z,67.57
2018-12-05T09:38:22.059Z,67.66
2018-12-05T09:39:22.033Z,68.33
2018-12-05T09:40:22.013Z,68.52
2018-12-05T09:41:21.995Z,68.33
2018-12-05T09:42:21.978Z,69.46
2018-12-05T09:43:21.957Z,69.09
2018-12-05T09:44:21.942Z,68.9
2018-12-05T09:45:21.927Z,69.56
2018-12-05T09:46:21.903Z,69.18
2018-12-05T09:47:21.889Z,68.52
2018-12-05T09:48:21.869Z,68.9
2018-12-05T09:49:21.850Z,69.78
2018-12-05T09:50:21.829Z,70.21
2018-12-05T09:51:21.811Z,71.39
2018-12-05T09:52:21.789Z,72.24
2018-12-05T09:53:21.774Z,73.56
2018-12-05T09:54:21.756Z,72.8
2018-12-05T09:55:21.749Z,73.56
2018-12-05T09:56:21.719Z,73.18
2018-12-05T09:57:21.704Z,73.56
2018-12-05T09:58:21.682Z,74.98
2018-12-05T09:59:21.664Z,75.64
2018-12-05T10:00:21.650Z,77.15
2018-12-05T10:01:21.626Z,77.44
2018-12-05T10:02:21.610Z,78.76
2018-12-05T10:03:21.590Z,78.67
2018-12-05T10:04:21.570Z,78.1
2018-12-05T10:05:21.552Z,77.72
2018-12-05T10:06:21.532Z,78.76
2018-12-05T10:07:21.517Z,79.14
2018-12-05T10:08:21.499Z,79.61
2018-12-05T10:09:21.480Z,80.65
2018-12-05T10:10:21.462Z,80.37
2018-12-05T10:11:21.442Z,81.22
2018-12-05T10:12:21.427Z,81.6
2018-12-05T10:13:21.406Z,82.83
2018-12-05T10:14:21.387Z,83.87
2018-12-05T10:15:21.370Z,84.34
2018-12-05T10:16:21.350Z,85.76
2018-12-05T10:17:21.340Z,86.23
2018-12-05T10:18:21.317Z,86.42
2018-12-05T10:19:21.300Z,87.93
2018-12-05T10:20:21.277Z,89.45
2018-12-05T10:21:21.264Z,90.68
2018-12-05T10:22:21.243Z,92.24
2018-12-05T10:23:21.224Z,92.52
2018-12-05T10:24:21.207Z,92.9
2018-12-05T10:25:21.191Z,93.66
2018-12-05T10:26:21.171Z,96.4
2018-12-05T10:27:21.152Z,98.58
2018-12-05T10:28:21.134Z,99.99
2018-12-05T10:29:21.120Z,99.99
2018-12-05T10:30:21.100Z,99.99
2018-12-05T10:31:21.091Z,99.99
2018-12-05T10:32:21.061Z,99.99
2018-12-05T10:33:21.046Z,99.99
2018-12-05T10:34:21.027Z,99.99
2018-12-05T10:35:21.017Z,99.99
2018-12-05T10:36:20.987Z,99.99
2018-12-05T10:37:20.974Z,99.99
2018-12-05T10:38:20.962Z,99.99
2018-12-05T10:39:20.935Z,99.99
2018-12-05T10:40:20.918Z,99.99
2018-12-05T10:41:20.898Z,99.99
2018-12-05T10:42:20.884Z,99.99
2018-12-05T10:43:20.863Z,99.99
2018-12-05T10:44:20.848Z,99.99
2018-12-05T10:45:20.831Z,99.99
2018-12-05T10:46:20.812Z,99.99
2018-12-05T10:47:20.796Z,99.99
2018-12-05T10:48:20.778Z,99.99
2018-12-05T10:49:20.765Z,99.99
2018-12-05T10:50:20.744Z,99.99
2018-12-05T10:51:20.725Z,99.99
2018-12-05T10:52:20.707Z,99.99
2018-12-05T10:53:20.689Z,99.99
2018-12-05T10:54:20.669Z,99.99
2018-12-05T10:55:20.657Z,99.99
2018-12-05T10:56:20.640Z,99.99
2018-12-05T10:57:20.620Z,99.99
2018-12-05T10:58:20.354Z,99.99
2018-12-05T10:59:20.582Z,99.99
2018-12-05T11:00:20.567Z,99.99
2018-12-05T11:01:20.300Z,99.99
2018-12-05T11:02:20.528Z,99.99
2018-12-05T11:03:20.522Z,99.99
2018-12-05T11:04:20.499Z,99.99
2018-12-05T11:05:20.482Z,99.99
2018-12-05T11:06:20.462Z,99.99
2018-12-05T11:07:20.446Z,99.99
2018-12-05T11:08:20.430Z,99.99
2018-12-05T11:09:20.408Z,99.99
2018-12-05T11:10:20.398Z,99.99
2018-12-05T11:11:20.128Z,99.99
2018-12-05T11:12:20.356Z,99.99
2018-12-05T11:13:21.742Z,99.99
2018-12-05T11:14:20.322Z,99.99
2018-12-05T11:15:20.307Z,99.99
2018-12-05T11:16:20.288Z,99.99
2018-12-05T11:17:20.269Z,99.99
2018-12-05T11:18:20.253Z,99.99
2018-12-05T11:19:20.235Z,99.99
2018-12-05T11:20:20.220Z,99.99
2018-12-05T11:21:20.205Z,99.99
2018-12-05T11:22:20.186Z,99.99
2018-12-05T11:23:20.168Z,99.99
2018-12-05T11:24:20.153Z,99.99
2018-12-05T11:25:20.132Z,99.99
2018-12-05T11:26:19.870Z,99.99
2018-12-05T11:27:20.105Z,99.99
2018-12-05T11:28:20.086Z,99.99
2018-12-05T11:29:20.066Z,99.99
2018-12-05T11:30:20.047Z,99.99
2018-12-05T11:31:20.033Z,99.99
2018-12-05T11:32:20.016Z,99.99
2018-12-05T11:33:19.999Z,99.99
2018-12-05T11:34:19.982Z,99.99
2018-12-05T11:35:19.964Z,99.99
2018-12-05T11:36:19.951Z,99.99
2018-12-05T11:37:19.929Z,99.99
2018-12-05T11:38:19.911Z,99.99
2018-12-05T11:39:19.893Z,99.99
2018-12-05T11:40:19.878Z,99.99
2018-12-05T11:41:19.863Z,99.99
2018-12-05T11:42:19.851Z,99.99
2018-12-05T11:43:19.829Z,99.99
2018-12-05T11:44:19.563Z,99.99
2018-12-05T11:45:19.546Z,99.99
2018-12-05T11:46:19.782Z,99.99
2018-12-05T11:47:19.782Z,99.99
2018-12-05T11:48:19.746Z,99.99
2018-12-05T11:49:19.730Z,99.99
2018-12-05T11:50:19.713Z,99.99
2018-12-05T11:51:19.703Z,99.99
2018-12-05T11:52:19.679Z,99.99
2018-12-05T11:53:19.412Z,99.99
2018-12-05T11:54:19.643Z,99.99
2018-12-05T11:55:19.624Z,99.99
2018-12-05T11:56:19.608Z,99.99
2018-12-05T11:57:19.592Z,99.99
2018-12-05T11:58:19.576Z,99.99
2018-12-05T11:59:19.560Z,99.99
2018-12-05T12:00:19.294Z,99.99
2018-12-05T12:01:19.524Z,99.99
2018-12-05T12:02:24.752Z,99.99
2018-12-05T12:03:19.488Z,99.99
2018-12-05T12:04:19.470Z,99.99
2018-12-05T12:05:19.458Z,99.99
2018-12-05T12:06:19.440Z,99.99
2018-12-05T12:07:19.175Z,99.99
2018-12-05T12:08:19.409Z,99.99
2018-12-05T12:09:19.388Z,99.99
2018-12-05T12:10:19.376Z,99.99
2018-12-05T12:11:19.109Z,99.99
2018-12-05T12:12:19.343Z,99.99
2018-12-05T12:13:19.324Z,99.99
2018-12-05T12:14:19.307Z,99.99
2018-12-05T12:15:19.288Z,99.99
2018-12-05T12:16:19.273Z,99.99
2018-12-05T12:17:19.258Z,99.99
2018-12-05T12:18:19.240Z,99.99
2018-12-05T12:19:19.228Z,99.99
2018-12-05T12:20:19.212Z,99.99
2018-12-05T12:21:19.192Z,99.99
2018-12-05T12:22:19.171Z,99.99
2018-12-05T12:23:19.155Z,99.99
2018-12-05T12:24:19.159Z,99.99
2018-12-05T12:25:18.872Z,99.99
2018-12-05T12:26:19.107Z,99.99
2018-12-05T12:27:19.096Z,99.99
2018-12-05T12:28:19.079Z,99.99
2018-12-05T12:29:19.054Z,99.99
2018-12-05T12:30:19.043Z,99.99
2018-12-05T12:31:19.024Z,99.99
2018-12-05T12:32:19.007Z,99.99
2018-12-05T12:33:18.990Z,99.99
2018-12-05T12:34:18.973Z,99.99
2018-12-05T12:35:18.954Z,99.99
2018-12-05T12:36:18.941Z,99.99
2018-12-05T12:37:18.922Z,99.99
2018-12-05T12:38:18.901Z,99.99
2018-12-05T12:39:18.889Z,99.99
2018-12-05T12:40:18.870Z,99.99
2018-12-05T12:41:18.860Z,99.99
2018-12-05T12:42:18.849Z,99.99
2018-12-05T12:43:18.819Z,99.99
2018-12-05T12:44:18.806Z,99.99
2018-12-05T12:45:20.069Z,99.99
2018-12-05T12:46:18.770Z,99.99
2018-12-05T12:47:18.754Z,99.99
2018-12-05T12:48:18.739Z,99.99
2018-12-05T12:49:18.720Z,99.99
2018-12-05T12:50:18.709Z,99.99
2018-12-05T12:51:18.683Z,99.99
2018-12-05T12:52:18.670Z,99.99
2018-12-05T12:53:18.651Z,99.99
2018-12-05T12:54:18.637Z,99.99
2018-12-05T12:55:18.622Z,99.99
2018-12-05T12:56:18.603Z,99.99